LAN121 SKCL-SEQM
Flight info
| Callsign | LAN121 |
|---|---|
| Flight time | 0h 51m |
| Altitude | 24000 |
| Route | CLO R567 PPN W48 MER G675 IPI/N0438F230 G675 QIT |
| Aircraft | A320/M-SDE3FGHIRWY/LB1 |
Departure
| Time | 2026-04-20 21:25 |
|---|---|
| Airport | Alfonso Bonilla Aragon International Airport (SKCL) |
Arrival
| Time | 2026-04-20 22:16 |
|---|---|
| Airport | Mariscal Sucre International Airport (SEQM) |
| Time | Latitude | Longitude | Altitude | Speed | Heading |
|---|---|---|---|---|---|
| 2026-04-20 21:08 | 3.53727 | -76.38636 | 3189 ft | 0 kts | 229° |
| 2026-04-20 21:19 | 3.53738 | -76.38624 | 3164 ft | 4 kts | 225° |
| 2026-04-20 21:19 | 3.53757 | -76.38605 | 3163 ft | 4 kts | 225° |
| 2026-04-20 21:19 | 3.53776 | -76.38589 | 3164 ft | 4 kts | 202° |
| 2026-04-20 21:20 | 3.53805 | -76.38589 | 3164 ft | 0 kts | 150° |
| 2026-04-20 21:21 | 3.53796 | -76.38584 | 3163 ft | 7 kts | 150° |
| 2026-04-20 21:21 | 3.53727 | -76.38544 | 3162 ft | 15 kts | 148° |
| 2026-04-20 21:22 | 3.53628 | -76.38496 | 3162 ft | 16 kts | 161° |
| 2026-04-20 21:22 | 3.53515 | -76.38473 | 3161 ft | 18 kts | 190° |
| 2026-04-20 21:22 | 3.53390 | -76.38497 | 3161 ft | 19 kts | 190° |
| 2026-04-20 21:22 | 3.53256 | -76.38520 | 3160 ft | 20 kts | 189° |
| 2026-04-20 21:23 | 3.53113 | -76.38544 | 3160 ft | 21 kts | 190° |
| 2026-04-20 21:23 | 3.53004 | -76.38546 | 3159 ft | 13 kts | 136° |
| 2026-04-20 21:23 | 3.52989 | -76.38457 | 3158 ft | 14 kts | 81° |
| 2026-04-20 21:23 | 3.53064 | -76.38390 | 3157 ft | 16 kts | 18° |
| 2026-04-20 21:24 | 3.53182 | -76.38367 | 3158 ft | 24 kts | 10° |
| 2026-04-20 21:24 | 3.53597 | -76.38296 | 3162 ft | 95 kts | 9° |
| 2026-04-20 21:24 | 3.54449 | -76.38148 | 3165 ft | 152 kts | 10° |
| 2026-04-20 21:24 | 3.55638 | -76.37942 | 3305 ft | 184 kts | 10° |
| 2026-04-20 21:25 | 3.56875 | -76.37735 | 4087 ft | 178 kts | 9° |
| 2026-04-20 21:25 | 3.58113 | -76.37532 | 4586 ft | 187 kts | 8° |
| 2026-04-20 21:25 | 3.59481 | -76.37354 | 4775 ft | 207 kts | 358° |
| 2026-04-20 21:25 | 3.60870 | -76.37851 | 4955 ft | 228 kts | 317° |
| 2026-04-20 21:26 | 3.61659 | -76.39270 | 5213 ft | 249 kts | 278° |
| 2026-04-20 21:26 | 3.61385 | -76.41028 | 5534 ft | 270 kts | 242° |
| 2026-04-20 21:26 | 3.60059 | -76.42382 | 6106 ft | 281 kts | 207° |
| 2026-04-20 21:26 | 3.58149 | -76.42810 | 6752 ft | 288 kts | 178° |
| 2026-04-20 21:27 | 3.56175 | -76.42509 | 7539 ft | 288 kts | 167° |
| 2026-04-20 21:27 | 3.54215 | -76.42044 | 8303 ft | 291 kts | 167° |
| 2026-04-20 21:27 | 3.52237 | -76.41573 | 9070 ft | 293 kts | 167° |
| 2026-04-20 21:27 | 3.50241 | -76.41100 | 9828 ft | 296 kts | 167° |
| 2026-04-20 21:28 | 3.48187 | -76.40783 | 10385 ft | 305 kts | 175° |
| 2026-04-20 21:28 | 3.45984 | -76.40648 | 10551 ft | 329 kts | 179° |
| 2026-04-20 21:28 | 3.43619 | -76.40603 | 10666 ft | 351 kts | 180° |
| 2026-04-20 21:28 | 3.41101 | -76.40605 | 10811 ft | 371 kts | 184° |
| 2026-04-20 21:29 | 3.38519 | -76.40984 | 11233 ft | 379 kts | 194° |
| 2026-04-20 21:29 | 3.35940 | -76.41603 | 11802 ft | 383 kts | 193° |
| 2026-04-20 21:29 | 3.33330 | -76.42188 | 12395 ft | 386 kts | 193° |
| 2026-04-20 21:29 | 3.30689 | -76.42753 | 12972 ft | 390 kts | 193° |
| 2026-04-20 21:30 | 3.28024 | -76.43312 | 13554 ft | 393 kts | 193° |
| 2026-04-20 21:30 | 3.25339 | -76.43876 | 14082 ft | 396 kts | 193° |
| 2026-04-20 21:30 | 3.22633 | -76.44453 | 14583 ft | 399 kts | 193° |
| 2026-04-20 21:30 | 3.19908 | -76.45044 | 15082 ft | 402 kts | 193° |
| 2026-04-20 21:31 | 3.17167 | -76.45646 | 15572 ft | 405 kts | 193° |
| 2026-04-20 21:31 | 3.14406 | -76.46252 | 16071 ft | 408 kts | 193° |
| 2026-04-20 21:31 | 3.11661 | -76.46854 | 16558 ft | 411 kts | 193° |
| 2026-04-20 21:31 | 3.08861 | -76.47466 | 17048 ft | 414 kts | 193° |
| 2026-04-20 21:32 | 3.06039 | -76.48084 | 17542 ft | 417 kts | 193° |
| 2026-04-20 21:32 | 3.03196 | -76.48704 | 18008 ft | 419 kts | 193° |
| 2026-04-20 21:32 | 3.00332 | -76.49328 | 18435 ft | 422 kts | 193° |
| 2026-04-20 21:32 | 2.97455 | -76.49957 | 18824 ft | 425 kts | 193° |
| 2026-04-20 21:33 | 2.94562 | -76.50589 | 19232 ft | 426 kts | 193° |
| 2026-04-20 21:33 | 2.91664 | -76.51221 | 19653 ft | 427 kts | 193° |
| 2026-04-20 21:33 | 2.88753 | -76.51854 | 20037 ft | 429 kts | 193° |
| 2026-04-20 21:33 | 2.85828 | -76.52491 | 20411 ft | 431 kts | 193° |
| 2026-04-20 21:34 | 2.82893 | -76.53130 | 20799 ft | 432 kts | 193° |
| 2026-04-20 21:34 | 2.79945 | -76.53771 | 21153 ft | 435 kts | 193° |
| 2026-04-20 21:34 | 2.76980 | -76.54417 | 21508 ft | 437 kts | 193° |
| 2026-04-20 21:34 | 2.74002 | -76.55066 | 21897 ft | 439 kts | 193° |
| 2026-04-20 21:35 | 2.71013 | -76.55719 | 22259 ft | 441 kts | 193° |
| 2026-04-20 21:35 | 2.68011 | -76.56374 | 22575 ft | 443 kts | 193° |
| 2026-04-20 21:35 | 2.64994 | -76.57032 | 22926 ft | 444 kts | 193° |
| 2026-04-20 21:35 | 2.61968 | -76.57692 | 23237 ft | 446 kts | 193° |
| 2026-04-20 21:36 | 2.58925 | -76.58356 | 23510 ft | 449 kts | 193° |
| 2026-04-20 21:36 | 2.55871 | -76.59020 | 23775 ft | 450 kts | 193° |
| 2026-04-20 21:36 | 2.52808 | -76.59688 | 24017 ft | 451 kts | 192° |
| 2026-04-20 21:36 | 2.49740 | -76.60355 | 24092 ft | 454 kts | 193° |
| 2026-04-20 21:37 | 2.46691 | -76.61254 | 24113 ft | 460 kts | 201° |
| 2026-04-20 21:37 | 2.43829 | -76.62614 | 24114 ft | 465 kts | 210° |
| 2026-04-20 21:37 | 2.41149 | -76.64456 | 24113 ft | 470 kts | 219° |
| 2026-04-20 21:37 | 2.38620 | -76.66525 | 24112 ft | 470 kts | 219° |
| 2026-04-20 21:38 | 2.36086 | -76.68592 | 24099 ft | 470 kts | 219° |
| 2026-04-20 21:38 | 2.33547 | -76.70659 | 24085 ft | 471 kts | 219° |
| 2026-04-20 21:38 | 2.31008 | -76.72722 | 24072 ft | 470 kts | 219° |
| 2026-04-20 21:38 | 2.28472 | -76.74785 | 24059 ft | 470 kts | 219° |
| 2026-04-20 21:39 | 2.25932 | -76.76849 | 24047 ft | 470 kts | 219° |
| 2026-04-20 21:39 | 2.23398 | -76.78908 | 24030 ft | 470 kts | 219° |
| 2026-04-20 21:39 | 2.20861 | -76.80970 | 23992 ft | 470 kts | 219° |
| 2026-04-20 21:39 | 2.18329 | -76.83031 | 23975 ft | 469 kts | 219° |
| 2026-04-20 21:40 | 2.15798 | -76.85091 | 23966 ft | 469 kts | 219° |
| 2026-04-20 21:40 | 2.13268 | -76.87151 | 23969 ft | 469 kts | 219° |
| 2026-04-20 21:40 | 2.11591 | -76.88518 | 23964 ft | 469 kts | 219° |
| 2026-04-20 21:40 | 2.08202 | -76.91277 | 23972 ft | 470 kts | 219° |
| 2026-04-20 21:41 | 2.06521 | -76.92643 | 23967 ft | 470 kts | 219° |
| 2026-04-20 21:41 | 2.03982 | -76.94707 | 23946 ft | 471 kts | 219° |
| 2026-04-20 21:41 | 2.01442 | -76.96774 | 23945 ft | 471 kts | 219° |
| 2026-04-20 21:41 | 1.98868 | -76.98871 | 23945 ft | 471 kts | 219° |
| 2026-04-20 21:42 | 1.96363 | -77.00913 | 23946 ft | 471 kts | 219° |
| 2026-04-20 21:42 | 1.93821 | -77.02987 | 23948 ft | 471 kts | 219° |
| 2026-04-20 21:42 | 1.91278 | -77.05057 | 23965 ft | 472 kts | 219° |
| 2026-04-20 21:42 | 1.88734 | -77.07126 | 23967 ft | 472 kts | 219° |
| 2026-04-20 21:43 | 1.86187 | -77.09198 | 23949 ft | 472 kts | 219° |
| 2026-04-20 21:43 | 1.83639 | -77.11269 | 23953 ft | 472 kts | 219° |
| 2026-04-20 21:43 | 1.81082 | -77.13328 | 23958 ft | 472 kts | 217° |
| 2026-04-20 21:43 | 1.78323 | -77.15097 | 23986 ft | 472 kts | 207° |
| 2026-04-20 21:44 | 1.75321 | -77.16410 | 23987 ft | 471 kts | 199° |
| 2026-04-20 21:44 | 1.72227 | -77.17498 | 23994 ft | 471 kts | 199° |
| 2026-04-20 21:44 | 1.69136 | -77.18588 | 23993 ft | 471 kts | 199° |
| 2026-04-20 21:44 | 1.66046 | -77.19680 | 23989 ft | 471 kts | 199° |
| 2026-04-20 21:45 | 1.62961 | -77.20772 | 24019 ft | 470 kts | 199° |
| 2026-04-20 21:45 | 1.59880 | -77.21864 | 24015 ft | 470 kts | 199° |
| 2026-04-20 21:45 | 1.56794 | -77.22956 | 23998 ft | 470 kts | 200° |
| 2026-04-20 21:45 | 1.53711 | -77.24047 | 24002 ft | 471 kts | 200° |
| 2026-04-20 21:46 | 1.50622 | -77.25141 | 24012 ft | 471 kts | 200° |
| 2026-04-20 21:46 | 1.47538 | -77.26235 | 24043 ft | 470 kts | 200° |
| 2026-04-20 21:46 | 1.44454 | -77.27329 | 24043 ft | 470 kts | 200° |
| 2026-04-20 21:46 | 1.41386 | -77.28456 | 24037 ft | 470 kts | 203° |
| 2026-04-20 21:47 | 1.38488 | -77.29954 | 24145 ft | 469 kts | 212° |
| 2026-04-20 21:47 | 1.35816 | -77.31818 | 24146 ft | 468 kts | 216° |
| 2026-04-20 21:47 | 1.33171 | -77.33721 | 24142 ft | 469 kts | 216° |
| 2026-04-20 21:47 | 1.30527 | -77.35617 | 24134 ft | 468 kts | 216° |
| 2026-04-20 21:48 | 1.27876 | -77.37517 | 24121 ft | 469 kts | 216° |
| 2026-04-20 21:48 | 1.25224 | -77.39412 | 24105 ft | 468 kts | 216° |
| 2026-04-20 21:48 | 1.22575 | -77.41305 | 24099 ft | 468 kts | 216° |
| 2026-04-20 21:48 | 1.19920 | -77.43202 | 24088 ft | 469 kts | 216° |
| 2026-04-20 21:49 | 1.17270 | -77.45096 | 24088 ft | 469 kts | 216° |
| 2026-04-20 21:49 | 1.14616 | -77.46991 | 24081 ft | 469 kts | 216° |
| 2026-04-20 21:49 | 1.11966 | -77.48887 | 24120 ft | 469 kts | 216° |
| 2026-04-20 21:49 | 1.09315 | -77.50785 | 24162 ft | 469 kts | 216° |
| 2026-04-20 21:50 | 1.06666 | -77.52682 | 24192 ft | 469 kts | 216° |
| 2026-04-20 21:50 | 1.04015 | -77.54581 | 24239 ft | 469 kts | 216° |
| 2026-04-20 21:50 | 1.01364 | -77.56478 | 24277 ft | 469 kts | 216° |
| 2026-04-20 21:50 | 0.98709 | -77.58377 | 24311 ft | 469 kts | 216° |
| 2026-04-20 21:51 | 0.96058 | -77.60273 | 24351 ft | 469 kts | 216° |
| 2026-04-20 21:51 | 0.93409 | -77.62166 | 24387 ft | 469 kts | 216° |
| 2026-04-20 21:51 | 0.90757 | -77.64062 | 24389 ft | 468 kts | 216° |
| 2026-04-20 21:51 | 0.88108 | -77.65952 | 24393 ft | 468 kts | 216° |
| 2026-04-20 21:52 | 0.85566 | -77.67909 | 24385 ft | 468 kts | 222° |
| 2026-04-20 21:52 | 0.83184 | -77.70123 | 24448 ft | 467 kts | 223° |
| 2026-04-20 21:52 | 0.80809 | -77.72339 | 24449 ft | 467 kts | 223° |
| 2026-04-20 21:52 | 0.78431 | -77.74554 | 24445 ft | 467 kts | 223° |
| 2026-04-20 21:53 | 0.76056 | -77.76765 | 24449 ft | 467 kts | 223° |
| 2026-04-20 21:53 | 0.73679 | -77.78977 | 24421 ft | 467 kts | 223° |
| 2026-04-20 21:53 | 0.71298 | -77.81188 | 24384 ft | 467 kts | 223° |
| 2026-04-20 21:53 | 0.68921 | -77.83396 | 24123 ft | 467 kts | 223° |
| 2026-04-20 21:54 | 0.66542 | -77.85608 | 24121 ft | 467 kts | 223° |
| 2026-04-20 21:54 | 0.64168 | -77.87819 | 24129 ft | 467 kts | 223° |
| 2026-04-20 21:54 | 0.61792 | -77.90030 | 24129 ft | 467 kts | 223° |
| 2026-04-20 21:54 | 0.59418 | -77.92242 | 24140 ft | 467 kts | 223° |
| 2026-04-20 21:55 | 0.57047 | -77.94456 | 24149 ft | 467 kts | 223° |
| 2026-04-20 21:55 | 0.54673 | -77.96672 | 24172 ft | 467 kts | 224° |
| 2026-04-20 21:55 | 0.52297 | -77.98886 | 24168 ft | 468 kts | 224° |
| 2026-04-20 21:55 | 0.49916 | -78.01103 | 24165 ft | 468 kts | 223° |
| 2026-04-20 21:56 | 0.47535 | -78.03321 | 24163 ft | 468 kts | 223° |
| 2026-04-20 21:56 | 0.45155 | -78.05537 | 24164 ft | 468 kts | 223° |
| 2026-04-20 21:56 | 0.42771 | -78.07755 | 24186 ft | 468 kts | 223° |
| 2026-04-20 21:56 | 0.40386 | -78.09971 | 24185 ft | 468 kts | 224° |
| 2026-04-20 21:57 | 0.38001 | -78.12184 | 24206 ft | 468 kts | 223° |
| 2026-04-20 21:57 | 0.35613 | -78.14400 | 24207 ft | 468 kts | 223° |
| 2026-04-20 21:57 | 0.33230 | -78.16613 | 24214 ft | 468 kts | 223° |
| 2026-04-20 21:57 | 0.30845 | -78.18830 | 24216 ft | 468 kts | 223° |
| 2026-04-20 21:58 | 0.28465 | -78.21045 | 24246 ft | 468 kts | 224° |
| 2026-04-20 21:58 | 0.26087 | -78.23262 | 24248 ft | 468 kts | 224° |
| 2026-04-20 21:58 | 0.23707 | -78.25480 | 24248 ft | 468 kts | 223° |
| 2026-04-20 21:58 | 0.21330 | -78.27695 | 24243 ft | 467 kts | 224° |
| 2026-04-20 21:59 | 0.18953 | -78.29908 | 24248 ft | 467 kts | 223° |
| 2026-04-20 21:59 | 0.16573 | -78.32122 | 24248 ft | 467 kts | 223° |
| 2026-04-20 21:59 | 0.14193 | -78.34332 | 24280 ft | 467 kts | 223° |
| 2026-04-20 21:59 | 0.11815 | -78.36543 | 24273 ft | 467 kts | 223° |
| 2026-04-20 22:00 | 0.09437 | -78.38756 | 24274 ft | 466 kts | 223° |
| 2026-04-20 22:00 | 0.07116 | -78.40915 | 24232 ft | 445 kts | 223° |
| 2026-04-20 22:00 | 0.04908 | -78.42972 | 24237 ft | 424 kts | 224° |
| 2026-04-20 22:00 | 0.02799 | -78.44934 | 24239 ft | 405 kts | 224° |
| 2026-04-20 22:01 | 0.00733 | -78.46749 | 24238 ft | 388 kts | 218° |
| 2026-04-20 22:01 | -0.01474 | -78.48197 | 24307 ft | 372 kts | 210° |
| 2026-04-20 22:01 | -0.03773 | -78.49262 | 24311 ft | 357 kts | 202° |
| 2026-04-20 22:01 | -0.06106 | -78.49959 | 24310 ft | 343 kts | 194° |
| 2026-04-20 22:02 | -0.08409 | -78.50311 | 24312 ft | 329 kts | 186° |
| 2026-04-20 22:02 | -0.10663 | -78.50367 | 24312 ft | 323 kts | 179° |
| 2026-04-20 22:02 | -0.12901 | -78.50172 | 24313 ft | 322 kts | 176° |
| 2026-04-20 22:02 | -0.15098 | -78.49950 | 24316 ft | 321 kts | 178° |
| 2026-04-20 22:03 | -0.17321 | -78.49760 | 24315 ft | 321 kts | 177° |
| 2026-04-20 22:03 | -0.19545 | -78.49591 | 24312 ft | 320 kts | 179° |
| 2026-04-20 22:03 | -0.21762 | -78.49431 | 24311 ft | 320 kts | 178° |
| 2026-04-20 22:03 | -0.23980 | -78.49269 | 24307 ft | 320 kts | 178° |
| 2026-04-20 22:04 | -0.26200 | -78.49100 | 24307 ft | 320 kts | 179° |
| 2026-04-20 22:04 | -0.28420 | -78.48927 | 24251 ft | 322 kts | 177° |
| 2026-04-20 22:04 | -0.30723 | -78.48749 | 23482 ft | 335 kts | 177° |
| 2026-04-20 22:04 | -0.33098 | -78.48563 | 22565 ft | 349 kts | 179° |
| 2026-04-20 22:05 | -0.35528 | -78.48297 | 21642 ft | 364 kts | 168° |
| 2026-04-20 22:05 | -0.37904 | -78.47295 | 20700 ft | 381 kts | 151° |
| 2026-04-20 22:05 | -0.40090 | -78.45706 | 19741 ft | 397 kts | 139° |
| 2026-04-20 22:05 | -0.41980 | -78.43633 | 18775 ft | 412 kts | 123° |
| 2026-04-20 22:06 | -0.43060 | -78.40946 | 17673 ft | 426 kts | 100° |
| 2026-04-20 22:06 | -0.43047 | -78.37969 | 16556 ft | 436 kts | 77° |
| 2026-04-20 22:06 | -0.41913 | -78.35149 | 15442 ft | 443 kts | 56° |
| 2026-04-20 22:06 | -0.39795 | -78.32922 | 14457 ft | 443 kts | 33° |
| 2026-04-20 22:07 | -0.37114 | -78.31666 | 13731 ft | 408 kts | 11° |
| 2026-04-20 22:07 | -0.34512 | -78.31662 | 13703 ft | 349 kts | 340° |
| 2026-04-20 22:07 | -0.32568 | -78.32804 | 13455 ft | 313 kts | 315° |
| 2026-04-20 22:07 | -0.31262 | -78.34530 | 12710 ft | 314 kts | 298° |
| 2026-04-20 22:08 | -0.30321 | -78.36477 | 12092 ft | 309 kts | 295° |
| 2026-04-20 22:08 | -0.29512 | -78.38438 | 11485 ft | 302 kts | 285° |
| 2026-04-20 22:08 | -0.29415 | -78.40496 | 10918 ft | 297 kts | 260° |
| 2026-04-20 22:08 | -0.30215 | -78.42373 | 10363 ft | 295 kts | 233° |
| 2026-04-20 22:09 | -0.31742 | -78.43675 | 10085 ft | 283 kts | 207° |
| 2026-04-20 22:09 | -0.33565 | -78.44071 | 10240 ft | 263 kts | 176° |
| 2026-04-20 22:09 | -0.35310 | -78.43549 | 10429 ft | 265 kts | 147° |
| 2026-04-20 22:09 | -0.36720 | -78.42370 | 10498 ft | 266 kts | 130° |
| 2026-04-20 22:10 | -0.37627 | -78.40822 | 10501 ft | 254 kts | 106° |
| 2026-04-20 22:10 | -0.37826 | -78.39130 | 10543 ft | 238 kts | 80° |
| 2026-04-20 22:10 | -0.37371 | -78.37559 | 10521 ft | 235 kts | 58° |
| 2026-04-20 22:10 | -0.36371 | -78.36308 | 10516 ft | 229 kts | 38° |
| 2026-04-20 22:11 | -0.35008 | -78.35524 | 10517 ft | 227 kts | 16° |
| 2026-04-20 22:11 | -0.33473 | -78.35212 | 10517 ft | 223 kts | 6° |
| 2026-04-20 22:11 | -0.32013 | -78.34977 | 10513 ft | 202 kts | 5° |
| 2026-04-20 22:11 | -0.30696 | -78.34792 | 10527 ft | 179 kts | 359° |
| 2026-04-20 22:12 | -0.29492 | -78.34754 | 10522 ft | 168 kts | 357° |
| 2026-04-20 22:12 | -0.28339 | -78.34776 | 10526 ft | 164 kts | 354° |
| 2026-04-20 22:12 | -0.27206 | -78.34815 | 10530 ft | 163 kts | 355° |
| 2026-04-20 22:12 | -0.26075 | -78.34859 | 10411 ft | 162 kts | 352° |
| 2026-04-20 22:13 | -0.24948 | -78.34906 | 10247 ft | 162 kts | 355° |
| 2026-04-20 22:13 | -0.23836 | -78.34953 | 10029 ft | 158 kts | 352° |
| 2026-04-20 22:13 | -0.22736 | -78.35000 | 9810 ft | 160 kts | 355° |
| 2026-04-20 22:13 | -0.21634 | -78.35046 | 9563 ft | 158 kts | 354° |
| 2026-04-20 22:14 | -0.20529 | -78.35092 | 9396 ft | 157 kts | 353° |
| 2026-04-20 22:14 | -0.19448 | -78.35142 | 9100 ft | 158 kts | 354° |
| 2026-04-20 22:14 | -0.18359 | -78.35192 | 8869 ft | 155 kts | 356° |
| 2026-04-20 22:14 | -0.17272 | -78.35238 | 8645 ft | 156 kts | 354° |
| 2026-04-20 22:15 | -0.16206 | -78.35284 | 8419 ft | 155 kts | 358° |
| 2026-04-20 22:15 | -0.15117 | -78.35324 | 8164 ft | 156 kts | 354° |
| 2026-04-20 22:15 | -0.14044 | -78.35375 | 7939 ft | 153 kts | 357° |
| 2026-04-20 22:15 | -0.13046 | -78.35416 | 7880 ft | 128 kts | 355° |
| 2026-04-20 22:16 | -0.12314 | -78.35447 | 7843 ft | 81 kts | 357° |
| 2026-04-20 22:16 | -0.11910 | -78.35464 | 7822 ft | 44 kts | 357° |
| 2026-04-20 22:16 | -0.11736 | -78.35511 | 7823 ft | 21 kts | 335° |
| 2026-04-20 22:16 | -0.11624 | -78.35582 | 7823 ft | 14 kts | 314° |
| 2026-04-20 22:17 | -0.11662 | -78.35643 | 7823 ft | 13 kts | 182° |
| 2026-04-20 22:17 | -0.11737 | -78.35640 | 7824 ft | 9 kts | 178° |
| 2026-04-20 22:17 | -0.11807 | -78.35638 | 7826 ft | 17 kts | 178° |
| 2026-04-20 22:17 | -0.11970 | -78.35632 | 7830 ft | 24 kts | 177° |
| 2026-04-20 22:18 | -0.12131 | -78.35625 | 7837 ft | 21 kts | 178° |
| 2026-04-20 22:18 | -0.12256 | -78.35620 | 7842 ft | 13 kts | 177° |
| 2026-04-20 22:18 | -0.12328 | -78.35620 | 7844 ft | 8 kts | 193° |
| 2026-04-20 22:18 | -0.12357 | -78.35660 | 7839 ft | 12 kts | 264° |
| 2026-04-20 22:19 | -0.12362 | -78.35772 | 7839 ft | 17 kts | 267° |
| 2026-04-20 22:19 | -0.12415 | -78.35840 | 7839 ft | 13 kts | 181° |
| 2026-04-20 22:19 | -0.12492 | -78.35849 | 7834 ft | 9 kts | 229° |
| 2026-04-20 22:19 | -0.12499 | -78.35908 | 7842 ft | 6 kts | 266° |
| 2026-04-20 22:20 | -0.12500 | -78.35925 | 7841 ft | 0 kts | 266° |
| 2026-04-20 22:20 | -0.12500 | -78.35927 | 7840 ft | 0 kts | 266° |